TRA3T EHAM-LEBL
Flight info
| Callsign | TRA3T |
|---|---|
| Flight time | N/A |
| Altitude | 36000 |
| Route | WOODY N872 MEDIL DCT KOVIN DCT DUCRA UM728 RESMI UN857 DISAK DCT DIRMO DCT VALKU DCT ATSUP DCT MINSO DCT DEGOL DCT PPG DCT ALBER |
| Aircraft | B738/M-SDE2E3FGHIRWXY/LB1 |
Departure
| Time | 2026-04-29 09:09 |
|---|---|
| Airport | Amsterdam Airport Schiphol (EHAM) |
Arrival
| Time | N/A |
|---|---|
| Airport | Josep Tarradellas Barcelona-El Prat Airport (LEBL) |
| Time | Latitude | Longitude | Altitude | Speed | Heading |
|---|---|---|---|---|---|
| 2026-04-29 08:47 | 52.30537 | 4.76515 | -2 ft | 0 kts | 59° |
| 2026-04-29 08:59 | 52.30532 | 4.76502 | -2 ft | 4 kts | 60° |
| 2026-04-29 09:00 | 52.30521 | 4.76463 | -2 ft | 4 kts | 78° |
| 2026-04-29 09:00 | 52.30523 | 4.76429 | -2 ft | 2 kts | 135° |
| 2026-04-29 09:00 | 52.30524 | 4.76427 | -2 ft | 1 kts | 136° |
| 2026-04-29 09:02 | 52.30518 | 4.76435 | -2 ft | 2 kts | 149° |
| 2026-04-29 09:02 | 52.30491 | 4.76458 | -2 ft | 7 kts | 152° |
| 2026-04-29 09:03 | 52.30436 | 4.76509 | -2 ft | 11 kts | 148° |
| 2026-04-29 09:03 | 52.30367 | 4.76576 | -2 ft | 12 kts | 158° |
| 2026-04-29 09:03 | 52.30299 | 4.76534 | -2 ft | 11 kts | 236° |
| 2026-04-29 09:03 | 52.30253 | 4.76410 | -2 ft | 15 kts | 238° |
| 2026-04-29 09:04 | 52.30189 | 4.76243 | -2 ft | 20 kts | 238° |
| 2026-04-29 09:04 | 52.30111 | 4.76040 | -2 ft | 21 kts | 238° |
| 2026-04-29 09:04 | 52.30034 | 4.75838 | -2 ft | 21 kts | 238° |
| 2026-04-29 09:04 | 52.29958 | 4.75643 | -2 ft | 20 kts | 238° |
| 2026-04-29 09:05 | 52.29885 | 4.75453 | -2 ft | 19 kts | 237° |
| 2026-04-29 09:05 | 52.29830 | 4.75260 | -2 ft | 19 kts | 270° |
| 2026-04-29 09:05 | 52.29896 | 4.75086 | -2 ft | 18 kts | 313° |
| 2026-04-29 09:05 | 52.29980 | 4.74935 | -2 ft | 18 kts | 312° |
| 2026-04-29 09:06 | 52.30068 | 4.74776 | -1 ft | 19 kts | 311° |
| 2026-04-29 09:06 | 52.30154 | 4.74617 | 9 ft | 19 kts | 311° |
| 2026-04-29 09:06 | 52.30239 | 4.74460 | 9 ft | 18 kts | 310° |
| 2026-04-29 09:06 | 52.30322 | 4.74302 | -1 ft | 21 kts | 311° |
| 2026-04-29 09:07 | 52.30373 | 4.74168 | -2 ft | 13 kts | 272° |
| 2026-04-29 09:07 | 52.30327 | 4.74045 | -2 ft | 13 kts | 219° |
| 2026-04-29 09:07 | 52.30257 | 4.73956 | -2 ft | 13 kts | 216° |
| 2026-04-29 09:07 | 52.30195 | 4.73860 | -3 ft | 12 kts | 247° |
| 2026-04-29 09:08 | 52.30217 | 4.73745 | -4 ft | 9 kts | 340° |
| 2026-04-29 09:08 | 52.30292 | 4.73746 | -5 ft | 14 kts | 4° |
| 2026-04-29 09:08 | 52.30571 | 4.73771 | -4 ft | 75 kts | 4° |
| 2026-04-29 09:08 | 52.31309 | 4.73840 | -3 ft | 136 kts | 2° |
| 2026-04-29 09:09 | 52.32364 | 4.73919 | 311 ft | 158 kts | 7° |
| 2026-04-29 09:09 | 52.33481 | 4.74195 | 952 ft | 165 kts | 17° |
| 2026-04-29 09:09 | 52.34620 | 4.74784 | 1469 ft | 182 kts | 29° |
| 2026-04-29 09:09 | 52.35846 | 4.75637 | 1956 ft | 196 kts | 29° |
| 2026-04-29 09:10 | 52.37102 | 4.76580 | 2475 ft | 200 kts | 45° |
| 2026-04-29 09:10 | 52.37748 | 4.78465 | 3100 ft | 194 kts | 88° |
| 2026-04-29 09:10 | 52.37443 | 4.80631 | 3821 ft | 199 kts | 104° |
| 2026-04-29 09:10 | 52.36936 | 4.82771 | 4495 ft | 209 kts | 121° |
| 2026-04-29 09:11 | 52.35811 | 4.84379 | 5181 ft | 227 kts | 144° |
| 2026-04-29 09:11 | 52.34172 | 4.85090 | 5476 ft | 264 kts | 173° |
| 2026-04-29 09:11 | 52.32295 | 4.85008 | 6116 ft | 274 kts | 175° |
| 2026-04-29 09:11 | 52.30370 | 4.84931 | 6859 ft | 278 kts | 176° |
| 2026-04-29 09:12 | 52.28424 | 4.84871 | 7614 ft | 281 kts | 176° |
| 2026-04-29 09:12 | 52.26459 | 4.84822 | 8350 ft | 285 kts | 176° |
| 2026-04-29 09:12 | 52.24462 | 4.84776 | 9096 ft | 288 kts | 176° |
| 2026-04-29 09:12 | 52.22450 | 4.84733 | 9861 ft | 291 kts | 176° |
| 2026-04-29 09:13 | 52.20414 | 4.84692 | 10564 ft | 295 kts | 176° |
| 2026-04-29 09:13 | 52.18299 | 4.84653 | 10830 ft | 315 kts | 177° |
| 2026-04-29 09:13 | 52.16032 | 4.84611 | 11010 ft | 337 kts | 177° |
| 2026-04-29 09:13 | 52.14454 | 4.84578 | 11238 ft | 346 kts | 177° |
| 2026-04-29 09:14 | 52.12020 | 4.84522 | 11783 ft | 353 kts | 177° |
| 2026-04-29 09:14 | 52.09554 | 4.84463 | 12496 ft | 355 kts | 177° |
| 2026-04-29 09:14 | 52.07068 | 4.84409 | 13218 ft | 358 kts | 177° |
| 2026-04-29 09:14 | 52.04560 | 4.84358 | 13912 ft | 363 kts | 177° |
| 2026-04-29 09:15 | 52.02025 | 4.84101 | 14556 ft | 371 kts | 189° |
| 2026-04-29 09:15 | 51.99597 | 4.82540 | 15215 ft | 379 kts | 204° |
| 2026-04-29 09:15 | 51.97237 | 4.80583 | 15878 ft | 383 kts | 204° |
| 2026-04-29 09:15 | 51.94831 | 4.78642 | 16503 ft | 388 kts | 203° |
| 2026-04-29 09:16 | 51.92393 | 4.76717 | 17170 ft | 391 kts | 203° |
| 2026-04-29 09:16 | 51.89929 | 4.74788 | 17802 ft | 396 kts | 202° |
| 2026-04-29 09:16 | 51.87433 | 4.72841 | 18402 ft | 401 kts | 202° |
| 2026-04-29 09:16 | 51.84909 | 4.70874 | 18958 ft | 405 kts | 202° |
| 2026-04-29 09:17 | 51.82361 | 4.68888 | 19541 ft | 408 kts | 202° |
| 2026-04-29 09:17 | 51.79799 | 4.66890 | 20143 ft | 410 kts | 202° |
| 2026-04-29 09:17 | 51.77219 | 4.64880 | 20708 ft | 413 kts | 202° |
| 2026-04-29 09:17 | 51.74622 | 4.62859 | 21256 ft | 416 kts | 202° |
| 2026-04-29 09:18 | 51.72006 | 4.60827 | 21805 ft | 419 kts | 202° |
| 2026-04-29 09:18 | 51.69371 | 4.58780 | 22340 ft | 422 kts | 202° |
| 2026-04-29 09:18 | 51.66714 | 4.56721 | 22868 ft | 425 kts | 202° |
| 2026-04-29 09:18 | 51.64044 | 4.54653 | 23402 ft | 428 kts | 202° |
| 2026-04-29 09:19 | 51.61350 | 4.52570 | 23904 ft | 431 kts | 202° |
| 2026-04-29 09:19 | 51.58642 | 4.50479 | 24309 ft | 434 kts | 202° |
| 2026-04-29 09:19 | 51.55910 | 4.48372 | 24715 ft | 437 kts | 202° |
| 2026-04-29 09:19 | 51.53151 | 4.46246 | 25109 ft | 441 kts | 202° |
| 2026-04-29 09:20 | 51.50379 | 4.44113 | 25492 ft | 444 kts | 202° |
| 2026-04-29 09:20 | 51.47586 | 4.41964 | 25890 ft | 446 kts | 201° |
| 2026-04-29 09:20 | 51.44777 | 4.39806 | 26289 ft | 449 kts | 201° |
| 2026-04-29 09:20 | 51.41955 | 4.37645 | 26656 ft | 452 kts | 201° |
| 2026-04-29 09:21 | 51.39102 | 4.35472 | 27005 ft | 455 kts | 201° |
| 2026-04-29 09:21 | 51.36225 | 4.33320 | 27356 ft | 458 kts | 200° |
| 2026-04-29 09:21 | 51.33325 | 4.31164 | 27705 ft | 461 kts | 200° |
| 2026-04-29 09:21 | 51.30407 | 4.28990 | 28020 ft | 464 kts | 201° |
| 2026-04-29 09:22 | 51.27521 | 4.26805 | 28345 ft | 467 kts | 201° |
| 2026-04-29 09:22 | 51.24582 | 4.24558 | 28698 ft | 469 kts | 201° |
| 2026-04-29 09:22 | 51.21631 | 4.22302 | 29035 ft | 472 kts | 201° |
| 2026-04-29 09:22 | 51.18659 | 4.20043 | 29348 ft | 474 kts | 201° |
| 2026-04-29 09:23 | 51.15657 | 4.17834 | 29643 ft | 475 kts | 197° |
| 2026-04-29 09:23 | 51.12564 | 4.15996 | 29941 ft | 475 kts | 194° |
| 2026-04-29 09:23 | 51.09423 | 4.14328 | 30244 ft | 477 kts | 193° |
| 2026-04-29 09:23 | 51.06260 | 4.12697 | 30510 ft | 479 kts | 193° |
| 2026-04-29 09:24 | 51.03099 | 4.11045 | 30891 ft | 477 kts | 193° |
| 2026-04-29 09:24 | 50.99962 | 4.09368 | 31373 ft | 473 kts | 194° |
| 2026-04-29 09:24 | 50.96858 | 4.07683 | 31817 ft | 470 kts | 194° |
| 2026-04-29 09:24 | 50.93767 | 4.05996 | 32186 ft | 469 kts | 194° |
| 2026-04-29 09:25 | 50.90680 | 4.04314 | 32514 ft | 469 kts | 194° |
| 2026-04-29 09:25 | 50.87598 | 4.02632 | 32868 ft | 468 kts | 195° |
| 2026-04-29 09:25 | 50.84555 | 4.00801 | 33258 ft | 467 kts | 198° |
| 2026-04-29 09:25 | 50.81550 | 3.98865 | 33655 ft | 466 kts | 199° |
| 2026-04-29 09:26 | 50.78575 | 3.96907 | 34228 ft | 459 kts | 200° |
| 2026-04-29 09:26 | 50.75653 | 3.94986 | 34721 ft | 453 kts | 200° |
| 2026-04-29 09:26 | 50.72731 | 3.93089 | 34883 ft | 456 kts | 199° |
| 2026-04-29 09:27 | 50.66816 | 3.89299 | 35226 ft | 458 kts | 200° |
| 2026-04-29 09:27 | 50.63868 | 3.87420 | 35528 ft | 457 kts | 199° |
| 2026-04-29 09:27 | 50.60926 | 3.85548 | 35742 ft | 457 kts | 200° |
| 2026-04-29 09:27 | 50.57972 | 3.83671 | 35926 ft | 458 kts | 200° |
| 2026-04-29 09:28 | 50.55046 | 3.81766 | 36262 ft | 455 kts | 201° |
| 2026-04-29 09:28 | 50.49188 | 3.77748 | 36238 ft | 462 kts | 202° |
| 2026-04-29 09:29 | 50.43337 | 3.73718 | 36204 ft | 462 kts | 202° |
| 2026-04-29 09:29 | 50.34519 | 3.67720 | 36217 ft | 454 kts | 202° |